Time;durP1;ratioP1;P1;durP2;ratioP2;P2;SDS_P1;SDS_P2;PMS_P1;PMS_P2;Temp;Humidity;BMP_temperature;BMP_pressure;BME280_temperature;BME280_humidity;BME280_pressure;Samples;Min_cycle;Max_cycle;Signal;HPM_P1;HPM_P2
2023/04/14 00:00:42;;;;;;;;;;;;;;;;;;5133144;27;2192;-42
2023/04/14 00:03:09;;;;;;;;;;;;;;;;;;5132658;27;2119;-40
2023/04/14 00:05:37;;;;;;;;;;;;;;;;;;5132857;27;1573;-43
2023/04/14 00:08:04;;;;;;;;;;;;;;;;;;5132497;27;2099;-44
2023/04/14 00:10:31;;;;;;;;;;;;;;;;;;5132608;27;1924;-41
2023/04/14 00:13:00;;;;;;;;;;;;;;;;;;5132532;27;1909;-41
2023/04/14 00:15:27;;;;;;;;;;;;;;;;;;5132478;27;1774;-41
2023/04/14 00:17:54;;;;;;;;;;;;;;;;;;5132313;27;1875;-42
2023/04/14 00:20:23;;;;;;;;;;;;;;;;;;5132420;27;1852;-42
2023/04/14 00:22:51;;;;;;;;;;;;;;;;;;5131857;27;1739;-44
2023/04/14 00:25:18;;;;;;;;;;;;;;;;;;5132494;27;2050;-40
2023/04/14 00:27:45;;;;;;;;;;;;;;;;;;5132645;27;1843;-55
2023/04/14 00:30:14;;;;;;;;;;;;;;;;;;5131118;27;1640;-50
2023/04/14 00:32:41;;;;;;;;;;;;;;;;;;5131138;27;1919;-41
2023/04/14 00:35:08;;;;;;;;;;;;;;;;;;5132388;27;1605;-40
2023/04/14 00:37:35;;;;;;;;;;;;;;;;;;5130926;27;2120;-45
2023/04/14 00:40:03;;;;;;;;;;;;;;;;;;5132074;27;1781;-42
2023/04/14 00:42:30;;;;;;;;;;;;;;;;;;5132165;27;1684;-54
2023/04/14 00:44:58;;;;;;;;;;;;;;;;;;5130659;27;1933;-47
2023/04/14 00:47:26;;;;;;;;;;;;;;;;;;5130577;27;2066;-42
2023/04/14 00:49:53;;;;;;;;;;;;;;;;;;5132214;27;2029;-51
2023/04/14 00:52:22;;;;;;;;;;;;;;;;;;5131856;27;1977;-50
2023/04/14 00:54:49;;;;;;;;;;;;;;;;;;5132081;28;1675;-42
2023/04/14 00:57:16;;;;;;;;;;;;;;;;;;5114563;27;1471;-42
2023/04/14 00:59:44;;;;;;;;;;;;;;;;;;5110099;28;1820;-45
2023/04/14 01:02:11;;;;;;;;;;;;;;;;;;5109870;28;1827;-42
2023/04/14 01:04:40;;;;;;;;;;;;;;;;;;5111567;28;1571;-43
2023/04/14 01:07:20;;;;;;;;;;;;;;;;;;5110183;28;1953;-44
2023/04/14 01:09:47;;;;;;;;;;;;;;;;;;5111377;28;1816;-42
2023/04/14 01:12:46;;;;;;;;;;;;;;;;;;5111672;28;2030;-51
2023/04/14 01:15:20;;;;;;;;;;;;;;;;;;5088312;28;1894;-42
2023/04/14 01:17:52;;;;;;;;;;;;;;;;;;5111554;28;1558;-42
2023/04/14 01:20:23;;;;;;;;;;;;;;;;;;5111007;28;2310;-47
2023/04/14 01:23:01;;;;;;;;;;;;;;;;;;5111448;28;2011;-42
2023/04/14 01:25:28;;;;;;;;;;;;;;;;;;5111005;28;1944;-41
2023/04/14 01:28:12;;;;;;;;;;;;;;;;;;5111371;28;2052;-40
2023/04/14 01:30:45;;;;;;;;;;;;;;;;;;5111114;28;1831;-42
2023/04/14 01:33:15;;;;;;;;;;;;;;;;;;5109713;28;2398;-45
2023/04/14 01:35:50;;;;;;;;;;;;;;;;;;5112274;28;1715;-44
2023/04/14 01:38:21;;;;;;;;;;;;;;;;;;5113854;28;2141;-52
2023/04/14 01:40:55;;;;;;;;;;;;;;;;;;5113481;28;1830;-43
2023/04/14 01:43:25;;;;;;;;;;;;;;;;;;5114851;28;1451;-41
2023/04/14 01:45:57;;;;;;;;;;;;;;;;;;5114716;28;1936;-41
2023/04/14 01:48:25;;;;;;;;;;;;;;;;;;5114869;28;1628;-41
2023/04/14 01:50:53;;;;;;;;;;;;;;;;;;5114588;28;2053;-42
2023/04/14 01:53:23;;;;;;;;;;;;;;;;;;5121717;27;2258;-42
2023/04/14 01:55:51;;;;;;;;;;;;;;;;;;5118316;27;1807;-46
2023/04/14 01:58:20;;;;;;;;;;;;;;;;;;5133798;27;2320;-42
2023/04/14 02:00:49;;;;;;;;;;;;;;;;;;5133975;27;1884;-41
2023/04/14 02:03:17;;;;;;;;;;;;;;;;;;5135184;27;1980;-42
2023/04/14 02:05:46;;;;;;;;;;;;;;;;;;5134935;27;1974;-50
2023/04/14 02:08:15;;;;;;;;;;;;;;;;;;5116067;27;2022;-46
2023/04/14 02:10:44;;;;;;;;;;;;;;;;;;5112819;28;2011;-42
2023/04/14 02:13:12;;;;;;;;;;;;;;;;;;5113972;28;1970;-43
2023/04/14 02:15:39;;;;;;;;;;;;;;;;;;5112916;28;1898;-42
2023/04/14 02:18:07;;;;;;;;;;;;;;;;;;5114046;28;2389;-46
2023/04/14 02:20:36;;;;;;;;;;;;;;;;;;5112865;28;2005;-51
2023/04/14 02:23:04;;;;;;;;;;;;;;;;;;5114006;28;1973;-41
2023/04/14 02:25:32;;;;;;;;;;;;;;;;;;5114036;28;1795;-41
2023/04/14 02:28:05;;;;;;;;;;;;;;;;;;5112506;28;1672;-42
2023/04/14 02:30:36;;;;;;;;;;;;;;;;;;5113616;28;1471;-41
2023/04/14 02:33:11;;;;;;;;;;;;;;;;;;5113781;28;1907;-40
2023/04/14 02:35:43;;;;;;;;;;;;;;;;;;5113787;28;2308;-42
2023/04/14 02:38:20;;;;;;;;;;;;;;;;;;5113625;28;2286;-41
2023/04/14 02:40:47;;;;;;;;;;;;;;;;;;5113553;28;1578;-42
2023/04/14 02:43:27;;;;;;;;;;;;;;;;;;5112266;28;1846;-42
2023/04/14 02:45:55;;;;;;;;;;;;;;;;;;5113062;28;1664;-41
2023/04/14 02:48:23;;;;;;;;;;;;;;;;;;5112157;28;2002;-49
2023/04/14 02:50:51;;;;;;;;;;;;;;;;;;5113454;28;2097;-44
2023/04/14 02:53:23;;;;;;;;;;;;;;;;;;5112242;28;1989;-41
2023/04/14 02:56:00;;;;;;;;;;;;;;;;;;5114969;27;1735;-42
2023/04/14 02:58:32;;;;;;;;;;;;;;;;;;5111979;28;1473;-47
2023/04/14 03:01:00;;;;;;;;;;;;;;;;;;5112151;28;1642;-41
2023/04/14 03:03:28;;;;;;;;;;;;;;;;;;5111732;28;1910;-46
2023/04/14 03:05:57;;;;;;;;;;;;;;;;;;5112049;28;1732;-42
2023/04/14 03:08:25;;;;;;;;;;;;;;;;;;5111793;28;1669;-52
2023/04/14 03:10:53;;;;;;;;;;;;;;;;;;5112218;28;1377;-42
2023/04/14 03:13:25;;;;;;;;;;;;;;;;;;5112057;28;1906;-42
2023/04/14 03:15:52;;;;;;;;;;;;;;;;;;5111945;28;1610;-43
2023/04/14 03:18:20;;;;;;;;;;;;;;;;;;5111733;28;2154;-41
2023/04/14 03:20:50;;;;;;;;;;;;;;;;;;5111554;28;1501;-49
2023/04/14 03:23:19;;;;;;;;;;;;;;;;;;5111198;28;1699;-42
2023/04/14 03:25:52;;;;;;;;;;;;;;;;;;5114078;27;2200;-48
2023/04/14 03:28:27;;;;;;;;;;;;;;;;;;5111475;28;1757;-43
2023/04/14 03:30:59;;;;;;;;;;;;;;;;;;5111642;28;2160;-43
2023/04/14 03:33:34;;;;;;;;;;;;;;;;;;5112348;28;2249;-42
2023/04/14 03:36:02;;;;;;;;;;;;;;;;;;5111431;28;1482;-57
2023/04/14 03:38:30;;;;;;;;;;;;;;;;;;5110966;28;1787;-46
2023/04/14 03:41:03;;;;;;;;;;;;;;;;;;5111199;28;1621;-44
2023/04/14 03:43:32;;;;;;;;;;;;;;;;;;5113010;28;1404;-41
2023/04/14 03:46:04;;;;;;;;;;;;;;;;;;5111075;28;2071;-42
2023/04/14 03:48:37;;;;;;;;;;;;;;;;;;5110924;28;1786;-42
2023/04/14 03:51:07;;;;;;;;;;;;;;;;;;5111077;28;2167;-44
2023/04/14 03:53:35;;;;;;;;;;;;;;;;;;5110928;28;1953;-42
2023/04/14 03:56:05;;;;;;;;;;;;;;;;;;5121186;27;1725;-42
2023/04/14 03:58:33;;;;;;;;;;;;;;;;;;5111476;28;2124;-43
2023/04/14 04:01:00;;;;;;;;;;;;;;;;;;5110832;28;1566;-41
2023/04/14 04:03:28;;;;;;;;;;;;;;;;;;5110943;28;2353;-42
2023/04/14 04:05:57;;;;;;;;;;;;;;;;;;5111030;28;1517;-42
2023/04/14 04:08:25;;;;;;;;;;;;;;;;;;5110682;28;2160;-42
2023/04/14 04:10:54;;;;;;;;;;;;;;;;;;5110868;28;1905;-42
2023/04/14 04:13:22;;;;;;;;;;;;;;;;;;5110743;28;1967;-42
2023/04/14 04:15:54;;;;;;;;;;;;;;;;;;5110730;28;2167;-42
2023/04/14 04:18:23;;;;;;;;;;;;;;;;;;5111837;28;2081;-51
2023/04/14 04:20:51;;;;;;;;;;;;;;;;;;5111819;28;2074;-47
2023/04/14 04:23:20;;;;;;;;;;;;;;;;;;5110601;28;1909;-43
2023/04/14 04:25:48;;;;;;;;;;;;;;;;;;5111826;28;1253;-42
2023/04/14 04:28:26;;;;;;;;;;;;;;;;;;5110356;28;1886;-44
2023/04/14 04:30:55;;;;;;;;;;;;;;;;;;5110554;28;1985;-43
2023/04/14 04:33:22;;;;;;;;;;;;;;;;;;5110331;28;2058;-43
2023/04/14 04:35:51;;;;;;;;;;;;;;;;;;5111834;28;1575;-42
2023/04/14 04:38:23;;;;;;;;;;;;;;;;;;5110283;28;1656;-42
2023/04/14 04:40:51;;;;;;;;;;;;;;;;;;5110252;28;2292;-44
2023/04/14 04:43:23;;;;;;;;;;;;;;;;;;5109997;28;1817;-42
2023/04/14 04:46:09;;;;;;;;;;;;;;;;;;5111515;28;2079;-41
2023/04/14 04:48:36;;;;;;;;;;;;;;;;;;5111285;28;1935;-42
2023/04/14 04:51:04;;;;;;;;;;;;;;;;;;5107894;28;2199;-42
2023/04/14 04:53:32;;;;;;;;;;;;;;;;;;5108474;28;1975;-43
2023/04/14 04:55:59;;;;;;;;;;;;;;;;;;5131852;27;1744;-42
2023/04/14 04:58:26;;;;;;;;;;;;;;;;;;5111546;28;1968;-43
2023/04/14 05:00:53;;;;;;;;;;;;;;;;;;5125928;28;2288;-42
2023/04/14 05:03:20;;;;;;;;;;;;;;;;;;5132048;28;2040;-57
2023/04/14 05:05:48;;;;;;;;;;;;;;;;;;5132468;28;2031;-53
2023/04/14 05:08:15;;;;;;;;;;;;;;;;;;5132608;27;1915;-45
2023/04/14 05:10:43;;;;;;;;;;;;;;;;;;5128683;27;1759;-62
2023/04/14 05:13:10;;;;;;;;;;;;;;;;;;5130850;27;2145;-45
2023/04/14 05:15:37;;;;;;;;;;;;;;;;;;5135985;27;2432;-44
2023/04/14 05:18:04;;;;;;;;;;;;;;;;;;5136149;27;2100;-43
2023/04/14 05:20:32;;;;;;;;;;;;;;;;;;5136197;27;2078;-44
2023/04/14 05:23:00;;;;;;;;;;;;;;;;;;5136364;27;1871;-42
2023/04/14 05:25:27;;;;;;;;;;;;;;;;;;5135994;27;1897;-47
2023/04/14 05:27:55;;;;;;;;;;;;;;;;;;5135920;27;1856;-42
2023/04/14 05:30:22;;;;;;;;;;;;;;;;;;5135838;27;2273;-41
2023/04/14 05:32:50;;;;;;;;;;;;;;;;;;5135636;27;1913;-42
2023/04/14 05:35:17;;;;;;;;;;;;;;;;;;5135652;27;1919;-42
2023/04/14 05:37:44;;;;;;;;;;;;;;;;;;5135783;27;1654;-60
2023/04/14 05:40:11;;;;;;;;;;;;;;;;;;5135251;27;1636;-42
2023/04/14 05:42:40;;;;;;;;;;;;;;;;;;5134999;27;1242;-43
2023/04/14 05:45:08;;;;;;;;;;;;;;;;;;5135459;27;2140;-57
2023/04/14 05:47:36;;;;;;;;;;;;;;;;;;5124122;27;2056;-59
2023/04/14 05:50:03;;;;;;;;;;;;;;;;;;5114032;28;1299;-42
2023/04/14 05:52:30;;;;;;;;;;;;;;;;;;5114786;28;2236;-54
2023/04/14 05:54:57;;;;;;;;;;;;;;;;;;5114885;28;2119;-58
2023/04/14 05:57:24;;;;;;;;;;;;;;;;;;5113250;28;1708;-42
2023/04/14 05:59:52;;;;;;;;;;;;;;;;;;5112969;28;2014;-44
2023/04/14 06:02:19;;;;;;;;;;;;;;;;;;5113956;28;1874;-45
2023/04/14 06:04:46;;;;;;;;;;;;;;;;;;5114604;28;1797;-42
2023/04/14 06:07:14;;;;;;;;;;;;;;;;;;5114462;27;1621;-61
2023/04/14 06:09:45;;;;;;;;;;;;;;;;;;5114430;28;2175;-44
2023/04/14 06:12:13;;;;;;;;;;;;;;;;;;5114491;28;1561;-43
2023/04/14 06:14:40;;;;;;;;;;;;;;;;;;5114461;28;2127;-53
2023/04/14 06:17:07;;;;;;;;;;;;;;;;;;5114489;28;2104;-43
2023/04/14 06:19:34;;;;;;;;;;;;;;;;;;5114140;28;1701;-60
2023/04/14 06:22:01;;;;;;;;;;;;;;;;;;5113834;28;1724;-42
2023/04/14 06:24:29;;;;;;;;;;;;;;;;;;5114050;28;1544;-43
2023/04/14 06:26:57;;;;;;;;;;;;;;;;;;5114203;28;1588;-42
2023/04/14 06:29:24;;;;;;;;;;;;;;;;;;5114129;28;1819;-42
2023/04/14 06:31:51;;;;;;;;;;;;;;;;;;5114127;28;1790;-43
2023/04/14 06:34:18;;;;;;;;;;;;;;;;;;5113993;28;1978;-42
2023/04/14 06:36:46;;;;;;;;;;;;;;;;;;5114147;28;2149;-44
2023/04/14 06:39:13;;;;;;;;;;;;;;;;;;5113899;28;1490;-49
2023/04/14 06:41:41;;;;;;;;;;;;;;;;;;5113771;28;2261;-41
2023/04/14 06:44:11;;;;;;;;;;;;;;;;;;5112500;28;1935;-43
2023/04/14 06:46:38;;;;;;;;;;;;;;;;;;5113690;28;1707;-42
2023/04/14 06:49:06;;;;;;;;;;;;;;;;;;5113933;27;1807;-43
2023/04/14 06:51:33;;;;;;;;;;;;;;;;;;5113455;28;1741;-43
2023/04/14 06:54:00;;;;;;;;;;;;;;;;;;5113391;28;2096;-55
2023/04/14 06:56:28;;;;;;;;;;;;;;;;;;5112408;28;2185;-43
2023/04/14 06:58:55;;;;;;;;;;;;;;;;;;5113625;28;2473;-43
2023/04/14 07:01:22;;;;;;;;;;;;;;;;;;5113582;28;2061;-43
2023/04/14 07:03:50;;;;;;;;;;;;;;;;;;5113584;28;1719;-51
2023/04/14 07:06:17;;;;;;;;;;;;;;;;;;5113352;28;1845;-44
2023/04/14 07:08:45;;;;;;;;;;;;;;;;;;5113549;28;2024;-43
2023/04/14 07:11:12;;;;;;;;;;;;;;;;;;5113446;28;1704;-42
2023/04/14 07:13:40;;;;;;;;;;;;;;;;;;5113623;28;1937;-47
2023/04/14 07:16:07;;;;;;;;;;;;;;;;;;5113531;28;1965;-45
2023/04/14 07:18:35;;;;;;;;;;;;;;;;;;5112944;28;1679;-43
2023/04/14 07:21:02;;;;;;;;;;;;;;;;;;5112155;28;1987;-44
2023/04/14 07:23:34;;;;;;;;;;;;;;;;;;5113158;28;2012;-51
2023/04/14 07:26:01;;;;;;;;;;;;;;;;;;5113155;28;1961;-51
2023/04/14 07:28:29;;;;;;;;;;;;;;;;;;5113150;28;1534;-45
2023/04/14 07:30:56;;;;;;;;;;;;;;;;;;5112918;28;2134;-48
2023/04/14 07:33:25;;;;;;;;;;;;;;;;;;5112979;28;1763;-51
2023/04/14 07:35:53;;;;;;;;;;;;;;;;;;5112879;28;1978;-51
2023/04/14 07:38:30;;;;;;;;;;;;;;;;;;5113064;28;1809;-53
2023/04/14 07:40:57;;;;;;;;;;;;;;;;;;5112782;28;2198;-52
2023/04/14 07:43:24;;;;;;;;;;;;;;;;;;5112924;28;1493;-64
2023/04/14 07:45:52;;;;;;;;;;;;;;;;;;5112532;28;1596;-60
2023/04/14 07:48:20;;;;;;;;;;;;;;;;;;5129227;27;1931;-57
2023/04/14 07:50:50;;;;;;;;;;;;;;;;;;5133293;27;2104;-48
2023/04/14 07:53:17;;;;;;;;;;;;;;;;;;5133595;27;2036;-52
2023/04/14 07:55:44;;;;;;;;;;;;;;;;;;5133102;27;1901;-49
2023/04/14 07:58:12;;;;;;;;;;;;;;;;;;5133124;27;1711;-44
2023/04/14 08:00:41;;;;;;;;;;;;;;;;;;5133365;27;2145;-52
2023/04/14 08:03:09;;;;;;;;;;;;;;;;;;5133027;27;1762;-44
2023/04/14 08:05:36;;;;;;;;;;;;;;;;;;5132903;27;1884;-58
2023/04/14 08:08:04;;;;;;;;;;;;;;;;;;5133295;27;1913;-50
2023/04/14 08:10:31;;;;;;;;;;;;;;;;;;5132712;27;2271;-46
2023/04/14 08:12:58;;;;;;;;;;;;;;;;;;5132647;27;2266;-56
2023/04/14 08:15:27;;;;;;;;;;;;;;;;;;5132809;27;1914;-51
2023/04/14 08:17:55;;;;;;;;;;;;;;;;;;5132689;27;2122;-56
2023/04/14 08:20:22;;;;;;;;;;;;;;;;;;5132876;27;1777;-59
2023/04/14 08:22:49;;;;;;;;;;;;;;;;;;5132562;27;2058;-63
2023/04/14 08:25:16;;;;;;;;;;;;;;;;;;5132484;27;1795;-51
2023/04/14 08:27:44;;;;;;;;;;;;;;;;;;5132837;27;2202;-55
2023/04/14 08:30:11;;;;;;;;;;;;;;;;;;5132521;27;1684;-57
2023/04/14 08:32:39;;;;;;;;;;;;;;;;;;5132407;27;2187;-57
2023/04/14 08:35:08;;;;;;;;;;;;;;;;;;5131105;27;1902;-43
2023/04/14 08:37:55;;;;;;;;;;;;;;;;;;5132208;27;1500;-63
2023/04/14 08:40:24;;;;;;;;;;;;;;;;;;5132374;27;2022;-53
2023/04/14 08:42:51;;;;;;;;;;;;;;;;;;5131862;27;2153;-57
2023/04/14 08:45:18;;;;;;;;;;;;;;;;;;5132560;27;2081;-45
2023/04/14 08:47:47;;;;;;;;;;;;;;;;;;5120263;27;2168;-42
2023/04/14 08:50:17;;;;;;;;;;;;;;;;;;5111639;28;1794;-44
2023/04/14 08:52:46;;;;;;;;;;;;;;;;;;5111781;28;2214;-41
2023/04/14 08:55:14;;;;;;;;;;;;;;;;;;5111597;28;1968;-42
2023/04/14 08:57:42;;;;;;;;;;;;;;;;;;5111455;28;1566;-43
2023/04/14 09:00:10;;;;;;;;;;;;;;;;;;5111503;28;1937;-43
2023/04/14 09:02:39;;;;;;;;;;;;;;;;;;5111471;28;1950;-42
2023/04/14 09:05:07;;;;;;;;;;;;;;;;;;5111562;28;1723;-42
2023/04/14 09:07:35;;;;;;;;;;;;;;;;;;5111523;28;1557;-43
2023/04/14 09:10:02;;;;;;;;;;;;;;;;;;5111339;28;2144;-42
2023/04/14 09:12:31;;;;;;;;;;;;;;;;;;5110248;28;1990;-43
2023/04/14 09:14:58;;;;;;;;;;;;;;;;;;5111234;28;2126;-43
2023/04/14 09:17:27;;;;;;;;;;;;;;;;;;5111178;28;1702;-62
2023/04/14 09:19:54;;;;;;;;;;;;;;;;;;5111395;28;1368;-43
2023/04/14 09:22:41;;;;;;;;;;;;;;;;;;5111431;28;1741;-48
2023/04/14 09:25:09;;;;;;;;;;;;;;;;;;5111339;28;1478;-43
2023/04/14 09:27:37;;;;;;;;;;;;;;;;;;5111224;28;2182;-50
2023/04/14 09:30:04;;;;;;;;;;;;;;;;;;5111153;28;1760;-42
2023/04/14 09:32:31;;;;;;;;;;;;;;;;;;5111180;28;1640;-49
2023/04/14 09:34:59;;;;;;;;;;;;;;;;;;5111163;28;2063;-42
2023/04/14 09:37:26;;;;;;;;;;;;;;;;;;5111283;28;1526;-56
2023/04/14 09:39:54;;;;;;;;;;;;;;;;;;5111177;28;2158;-41
2023/04/14 09:42:36;;;;;;;;;;;;;;;;;;5110918;28;1955;-45
2023/04/14 09:45:04;;;;;;;;;;;;;;;;;;5111247;28;2051;-44
2023/04/14 09:47:31;;;;;;;;;;;;;;;;;;5121061;28;1841;-42
2023/04/14 09:49:59;;;;;;;;;;;;;;;;;;5131501;27;2218;-42
2023/04/14 09:52:37;;;;;;;;;;;;;;;;;;5131686;27;2030;-54
2023/04/14 09:55:07;;;;;;;;;;;;;;;;;;5131470;27;1921;-43
2023/04/14 09:57:36;;;;;;;;;;;;;;;;;;5135493;27;1763;-49
2023/04/14 10:00:23;;;;;;;;;;;;;;;;;;5135135;27;2163;-42
2023/04/14 10:02:54;;;;;;;;;;;;;;;;;;5135406;27;1862;-42
2023/04/14 10:05:28;;;;;;;;;;;;;;;;;;5135100;27;2169;-58
2023/04/14 10:08:03;;;;;;;;;;;;;;;;;;5134845;27;2262;-49
2023/04/14 10:10:30;;;;;;;;;;;;;;;;;;5114562;27;2012;-42
2023/04/14 10:12:58;;;;;;;;;;;;;;;;;;5115076;28;1824;-42
2023/04/14 10:15:26;;;;;;;;;;;;;;;;;;5114874;28;2212;-42
2023/04/14 10:17:53;;;;;;;;;;;;;;;;;;5114446;27;1849;-44
2023/04/14 10:20:20;;;;;;;;;;;;;;;;;;5114418;28;1568;-41
2023/04/14 10:22:48;;;;;;;;;;;;;;;;;;5114371;28;1897;-42
2023/04/14 10:25:17;;;;;;;;;;;;;;;;;;5114378;28;1681;-41
2023/04/14 10:27:48;;;;;;;;;;;;;;;;;;5114298;28;2150;-41
2023/04/14 10:30:15;;;;;;;;;;;;;;;;;;5114072;28;1861;-41
2023/04/14 10:32:44;;;;;;;;;;;;;;;;;;5114097;28;2100;-41
2023/04/14 10:35:17;;;;;;;;;;;;;;;;;;5113918;28;2133;-41
2023/04/14 10:37:50;;;;;;;;;;;;;;;;;;5113954;28;1948;-41
2023/04/14 10:40:18;;;;;;;;;;;;;;;;;;5114150;28;1973;-41
2023/04/14 10:42:54;;;;;;;;;;;;;;;;;;5113768;28;1851;-41
2023/04/14 10:45:21;;;;;;;;;;;;;;;;;;5113970;28;2024;-41
2023/04/14 10:47:49;;;;;;;;;;;;;;;;;;5126296;27;1923;-40
2023/04/14 10:50:18;;;;;;;;;;;;;;;;;;5134375;27;1967;-41
2023/04/14 10:52:49;;;;;;;;;;;;;;;;;;5134340;27;1896;-43
2023/04/14 10:55:20;;;;;;;;;;;;;;;;;;5134002;27;2140;-46
2023/04/14 10:57:47;;;;;;;;;;;;;;;;;;5134328;27;1674;-41
2023/04/14 11:00:23;;;;;;;;;;;;;;;;;;5134213;27;2133;-42
2023/04/14 11:02:55;;;;;;;;;;;;;;;;;;5134529;27;1776;-41
2023/04/14 11:05:23;;;;;;;;;;;;;;;;;;5134138;27;1910;-46
2023/04/14 11:07:55;;;;;;;;;;;;;;;;;;5133511;27;2359;-43
2023/04/14 11:10:23;;;;;;;;;;;;;;;;;;5134155;27;1400;-43
2023/04/14 11:13:08;;;;;;;;;;;;;;;;;;5134004;27;2067;-47
2023/04/14 11:15:49;;;;;;;;;;;;;;;;;;5133829;27;1976;-48
2023/04/14 11:18:19;;;;;;;;;;;;;;;;;;5133522;27;1941;-47
2023/04/14 11:20:46;;;;;;;;;;;;;;;;;;5133852;27;1759;-49
2023/04/14 11:23:15;;;;;;;;;;;;;;;;;;5133657;27;1842;-49
2023/04/14 11:25:46;;;;;;;;;;;;;;;;;;5133681;27;1843;-42
2023/04/14 11:28:13;;;;;;;;;;;;;;;;;;5133723;27;1764;-41
2023/04/14 11:30:40;;;;;;;;;;;;;;;;;;5133474;27;1785;-41
2023/04/14 11:33:08;;;;;;;;;;;;;;;;;;5133500;27;1625;-41
2023/04/14 11:35:35;;;;;;;;;;;;;;;;;;5133355;27;2120;-43
2023/04/14 11:38:02;;;;;;;;;;;;;;;;;;5133438;27;1749;-54
2023/04/14 11:40:30;;;;;;;;;;;;;;;;;;5133298;27;1951;-49
2023/04/14 11:42:57;;;;;;;;;;;;;;;;;;5133486;27;1970;-53
2023/04/14 11:45:28;;;;;;;;;;;;;;;;;;5133423;27;1843;-56
2023/04/14 11:47:57;;;;;;;;;;;;;;;;;;5119564;27;1942;-58
2023/04/14 11:50:26;;;;;;;;;;;;;;;;;;5112894;28;1910;-41
2023/04/14 11:52:59;;;;;;;;;;;;;;;;;;5112700;28;1649;-45
2023/04/14 11:55:27;;;;;;;;;;;;;;;;;;5112492;28;2189;-45
2023/04/14 11:57:55;;;;;;;;;;;;;;;;;;5112494;28;2084;-44
2023/04/14 12:00:26;;;;;;;;;;;;;;;;;;5112613;28;1518;-54
2023/04/14 12:02:53;;;;;;;;;;;;;;;;;;5112421;28;1969;-41
2023/04/14 12:05:24;;;;;;;;;;;;;;;;;;5112402;28;2312;-42
2023/04/14 12:07:56;;;;;;;;;;;;;;;;;;5112474;28;1952;-43
2023/04/14 12:10:24;;;;;;;;;;;;;;;;;;5112255;27;1646;-40
2023/04/14 12:13:00;;;;;;;;;;;;;;;;;;5112159;28;2153;-48
2023/04/14 12:15:29;;;;;;;;;;;;;;;;;;5112392;28;1964;-47
2023/04/14 12:17:57;;;;;;;;;;;;;;;;;;5111566;28;2162;-57
2023/04/14 12:20:26;;;;;;;;;;;;;;;;;;5112162;28;1895;-40
2023/04/14 12:23:00;;;;;;;;;;;;;;;;;;5111851;28;1640;-40
2023/04/14 12:25:33;;;;;;;;;;;;;;;;;;5112244;28;1742;-40
2023/04/14 12:28:04;;;;;;;;;;;;;;;;;;5112105;28;1648;-40
2023/04/14 12:30:32;;;;;;;;;;;;;;;;;;5111972;28;1860;-39
2023/04/14 12:33:05;;;;;;;;;;;;;;;;;;5112054;28;1780;-41
2023/04/14 12:35:33;;;;;;;;;;;;;;;;;;5111325;28;2123;-40
2023/04/14 12:38:07;;;;;;;;;;;;;;;;;;5110572;28;1951;-40
2023/04/14 12:40:42;;;;;;;;;;;;;;;;;;5111706;28;1893;-39
2023/04/14 12:43:10;;;;;;;;;;;;;;;;;;5111760;28;1996;-41
2023/04/14 12:45:47;;;;;;;;;;;;;;;;;;5111565;28;2297;-41
2023/04/14 12:48:16;;;;;;;;;;;;;;;;;;5127583;27;1877;-39
2023/04/14 12:50:43;;;;;;;;;;;;;;;;;;5132255;27;1822;-40
2023/04/14 12:53:27;;;;;;;;;;;;;;;;;;5132154;27;1846;-50
2023/04/14 12:56:10;;;;;;;;;;;;;;;;;;5132021;28;1906;-52
2023/04/14 12:58:41;;;;;;;;;;;;;;;;;;5132280;27;1562;-41
2023/04/14 13:01:09;;;;;;;;;;;;;;;;;;5132004;27;2003;-41
2023/04/14 13:03:49;;;;;;;;;;;;;;;;;;5132252;27;2073;-53
2023/04/14 13:06:17;;;;;;;;;;;;;;;;;;5131878;27;2243;-40
2023/04/14 13:08:45;;;;;;;;;;;;;;;;;;5130677;28;2016;-55
2023/04/14 13:11:16;;;;;;;;;;;;;;;;;;5131967;28;1613;-42
2023/04/14 13:13:44;;;;;;;;;;;;;;;;;;5131966;28;1697;-40
2023/04/14 13:16:12;;;;;;;;;;;;;;;;;;5130883;27;1974;-42
2023/04/14 13:18:44;;;;;;;;;;;;;;;;;;5128339;27;2202;-41
2023/04/14 13:21:12;;;;;;;;;;;;;;;;;;5112311;28;2059;-51
2023/04/14 13:23:40;;;;;;;;;;;;;;;;;;5131705;27;2094;-51
2023/04/14 13:26:07;;;;;;;;;;;;;;;;;;5131554;27;1931;-48
2023/04/14 13:28:35;;;;;;;;;;;;;;;;;;5115020;27;1939;-44
2023/04/14 13:31:03;;;;;;;;;;;;;;;;;;5109573;28;1752;-45
2023/04/14 13:33:31;;;;;;;;;;;;;;;;;;5115277;28;2148;-59
2023/04/14 13:35:59;;;;;;;;;;;;;;;;;;5114966;28;1902;-50
2023/04/14 13:38:27;;;;;;;;;;;;;;;;;;5117969;27;1504;-41
2023/04/14 13:40:55;;;;;;;;;;;;;;;;;;5110657;28;1626;-40
2023/04/14 13:43:23;;;;;;;;;;;;;;;;;;5114544;28;1855;-41
2023/04/14 13:45:50;;;;;;;;;;;;;;;;;;5114843;28;1939;-40
2023/04/14 13:48:18;;;;;;;;;;;;;;;;;;5114302;28;1786;-40
2023/04/14 13:50:45;;;;;;;;;;;;;;;;;;5114509;28;1962;-39
2023/04/14 13:53:12;;;;;;;;;;;;;;;;;;5114815;27;2076;-40
2023/04/14 13:55:40;;;;;;;;;;;;;;;;;;5114719;28;1984;-45
2023/04/14 13:58:07;;;;;;;;;;;;;;;;;;5114572;28;1654;-52
2023/04/14 14:00:35;;;;;;;;;;;;;;;;;;5114916;28;2335;-48
2023/04/14 14:03:02;;;;;;;;;;;;;;;;;;5114424;27;1783;-38
2023/04/14 14:05:29;;;;;;;;;;;;;;;;;;5114639;28;1975;-56
2023/04/14 14:07:56;;;;;;;;;;;;;;;;;;5116532;27;1478;-40
2023/04/14 14:10:24;;;;;;;;;;;;;;;;;;5133366;27;1989;-52
2023/04/14 14:12:52;;;;;;;;;;;;;;;;;;5134876;27;1942;-46
2023/04/14 14:15:19;;;;;;;;;;;;;;;;;;5134549;27;1880;-42
2023/04/14 14:17:46;;;;;;;;;;;;;;;;;;5134272;27;1909;-54
2023/04/14 14:20:13;;;;;;;;;;;;;;;;;;5134808;27;1874;-57
2023/04/14 14:22:40;;;;;;;;;;;;;;;;;;5134557;27;1844;-40
2023/04/14 14:25:08;;;;;;;;;;;;;;;;;;5134812;27;1764;-42
2023/04/14 14:27:47;;;;;;;;;;;;;;;;;;5134376;27;1903;-40
2023/04/14 14:30:16;;;;;;;;;;;;;;;;;;5134606;27;1547;-40
2023/04/14 14:32:43;;;;;;;;;;;;;;;;;;5134750;27;1874;-46
2023/04/14 14:35:10;;;;;;;;;;;;;;;;;;5134638;27;1496;-40
2023/04/14 14:37:39;;;;;;;;;;;;;;;;;;5135059;27;2170;-40
2023/04/14 14:40:07;;;;;;;;;;;;;;;;;;5134813;27;2186;-48
2023/04/14 14:42:34;;;;;;;;;;;;;;;;;;5133827;27;1594;-56
2023/04/14 14:45:01;;;;;;;;;;;;;;;;;;5134366;27;2140;-42
2023/04/14 14:47:29;;;;;;;;;;;;;;;;;;5124501;27;1730;-42
2023/04/14 14:49:59;;;;;;;;;;;;;;;;;;5114086;28;2210;-42
2023/04/14 14:52:29;;;;;;;;;;;;;;;;;;5113673;28;2080;-40
2023/04/14 14:54:59;;;;;;;;;;;;;;;;;;5113641;28;1632;-39
2023/04/14 14:57:26;;;;;;;;;;;;;;;;;;5113718;28;1989;-39
2023/04/14 14:59:53;;;;;;;;;;;;;;;;;;5113861;28;2126;-40
2023/04/14 15:02:21;;;;;;;;;;;;;;;;;;5113582;28;1747;-39
2023/04/14 15:04:48;;;;;;;;;;;;;;;;;;5112175;28;1653;-40
2023/04/14 15:07:16;;;;;;;;;;;;;;;;;;5113300;28;2115;-50
2023/04/14 15:09:45;;;;;;;;;;;;;;;;;;5111712;28;1438;-45
2023/04/14 15:12:12;;;;;;;;;;;;;;;;;;5111300;28;1578;-47
2023/04/14 15:14:39;;;;;;;;;;;;;;;;;;5111456;28;1898;-49
2023/04/14 15:17:06;;;;;;;;;;;;;;;;;;5111453;28;2047;-48
2023/04/14 15:19:34;;;;;;;;;;;;;;;;;;5111236;28;1528;-41
2023/04/14 15:22:01;;;;;;;;;;;;;;;;;;5111005;28;1714;-41
2023/04/14 15:24:28;;;;;;;;;;;;;;;;;;5111335;28;1564;-39
2023/04/14 15:26:56;;;;;;;;;;;;;;;;;;5112909;28;1527;-39
2023/04/14 15:29:24;;;;;;;;;;;;;;;;;;5112986;28;2093;-41
2023/04/14 15:31:51;;;;;;;;;;;;;;;;;;5113016;28;1940;-40
2023/04/14 15:34:22;;;;;;;;;;;;;;;;;;5112833;28;1312;-40
2023/04/14 15:36:49;;;;;;;;;;;;;;;;;;5112609;28;1928;-59
2023/04/14 15:39:17;;;;;;;;;;;;;;;;;;5112811;27;1797;-52
2023/04/14 15:41:46;;;;;;;;;;;;;;;;;;5112568;28;1651;-40
2023/04/14 15:44:13;;;;;;;;;;;;;;;;;;5112751;28;1708;-49
2023/04/14 15:46:40;;;;;;;;;;;;;;;;;;5112750;28;1742;-51
2023/04/14 15:49:07;;;;;;;;;;;;;;;;;;5112645;28;2241;-41
2023/04/14 15:51:35;;;;;;;;;;;;;;;;;;5112672;28;2241;-40
2023/04/14 15:54:02;;;;;;;;;;;;;;;;;;5111416;28;1804;-41
2023/04/14 15:56:30;;;;;;;;;;;;;;;;;;5112710;28;1916;-41
2023/04/14 15:58:57;;;;;;;;;;;;;;;;;;5112281;28;1720;-41
2023/04/14 16:01:24;;;;;;;;;;;;;;;;;;5112270;28;1993;-41
2023/04/14 16:03:51;;;;;;;;;;;;;;;;;;5112188;28;1798;-44
2023/04/14 16:06:18;;;;;;;;;;;;;;;;;;5110883;28;2183;-40
2023/04/14 16:08:45;;;;;;;;;;;;;;;;;;5112178;28;2016;-41
2023/04/14 16:11:15;;;;;;;;;;;;;;;;;;5112498;28;1940;-40
2023/04/14 16:13:45;;;;;;;;;;;;;;;;;;5112424;28;2027;-44
2023/04/14 16:16:13;;;;;;;;;;;;;;;;;;5112179;28;1750;-44
2023/04/14 16:18:41;;;;;;;;;;;;;;;;;;5112190;28;2264;-40
2023/04/14 16:21:08;;;;;;;;;;;;;;;;;;5112127;28;1815;-40
2023/04/14 16:23:35;;;;;;;;;;;;;;;;;;5111542;28;1665;-53
2023/04/14 16:26:02;;;;;;;;;;;;;;;;;;5111727;28;1757;-41
2023/04/14 16:28:30;;;;;;;;;;;;;;;;;;5111819;28;1896;-39
2023/04/14 16:31:00;;;;;;;;;;;;;;;;;;5111571;28;1956;-41
2023/04/14 16:33:27;;;;;;;;;;;;;;;;;;5111761;28;2106;-41
2023/04/14 16:35:55;;;;;;;;;;;;;;;;;;5111817;28;1627;-41
2023/04/14 16:38:23;;;;;;;;;;;;;;;;;;5110832;28;2071;-50
2023/04/14 16:40:55;;;;;;;;;;;;;;;;;;5111755;28;1933;-40
2023/04/14 16:43:23;;;;;;;;;;;;;;;;;;5111425;28;1932;-40
2023/04/14 16:45:50;;;;;;;;;;;;;;;;;;5111701;28;2117;-41
2023/04/14 16:48:18;;;;;;;;;;;;;;;;;;5111389;28;2102;-42
2023/04/14 16:50:46;;;;;;;;;;;;;;;;;;5111692;28;2132;-40
2023/04/14 16:53:13;;;;;;;;;;;;;;;;;;5111603;28;1860;-41
2023/04/14 16:55:40;;;;;;;;;;;;;;;;;;5111544;28;1470;-40
2023/04/14 16:58:08;;;;;;;;;;;;;;;;;;5112297;27;1945;-39
2023/04/14 17:00:36;;;;;;;;;;;;;;;;;;5111296;28;1961;-47
2023/04/14 17:03:04;;;;;;;;;;;;;;;;;;5111425;28;1991;-40
2023/04/14 17:05:32;;;;;;;;;;;;;;;;;;5114247;28;1953;-44
2023/04/14 17:07:59;;;;;;;;;;;;;;;;;;5115996;28;1646;-40
2023/04/14 17:10:28;;;;;;;;;;;;;;;;;;5115122;27;1800;-40
2023/04/14 17:12:55;;;;;;;;;;;;;;;;;;5115552;28;2381;-40
2023/04/14 17:15:22;;;;;;;;;;;;;;;;;;5115603;28;2328;-41